createdAt,value
2022-12-04T00:00:36.000Z,-0.73
2022-12-04T00:03:03.741Z,-0.85
2022-12-04T00:05:31.409Z,-0.86
2022-12-04T00:07:59.001Z,-0.66
2022-12-04T00:10:26.589Z,-0.75
2022-12-04T00:12:54.084Z,-0.93
2022-12-04T00:15:26.312Z,-0.69
2022-12-04T00:17:54.515Z,-0.73
2022-12-04T00:20:23.137Z,-0.64
2022-12-04T00:22:50.715Z,-0.70
2022-12-04T00:25:18.378Z,-0.81
2022-12-04T00:27:45.976Z,-0.79
2022-12-04T00:30:13.954Z,-0.78
2022-12-04T00:32:41.532Z,-0.66
2022-12-04T00:35:09.871Z,-0.60
2022-12-04T00:37:37.421Z,-0.69
2022-12-04T00:40:05.464Z,-0.69
2022-12-04T00:42:32.962Z,-0.57
2022-12-04T00:45:00.541Z,-0.54
2022-12-04T00:47:28.020Z,-0.69
2022-12-04T00:49:55.852Z,-0.83
2022-12-04T00:52:23.631Z,-0.69
2022-12-04T00:54:51.132Z,-0.73
2022-12-04T00:57:18.652Z,-0.79
2022-12-04T00:59:46.186Z,-0.71
2022-12-04T01:02:13.699Z,-0.70
2022-12-04T01:04:41.145Z,-0.60
2022-12-04T01:07:08.660Z,-0.60
2022-12-04T01:09:36.133Z,-0.59
2022-12-04T01:12:03.661Z,-0.66
2022-12-04T01:14:31.268Z,-0.63
2022-12-04T01:16:58.936Z,-0.64
2022-12-04T01:19:26.544Z,-0.60
2022-12-04T01:21:54.118Z,-0.51
2022-12-04T01:24:21.782Z,-0.52
2022-12-04T01:26:49.286Z,-0.63
2022-12-04T01:29:16.800Z,-0.60
2022-12-04T01:31:44.487Z,-0.71
2022-12-04T01:34:12.124Z,-0.61
2022-12-04T01:36:39.618Z,-0.77
2022-12-04T01:39:07.248Z,-0.77
2022-12-04T01:41:34.753Z,-0.78
2022-12-04T01:44:14.465Z,-0.71
2022-12-04T01:46:43.057Z,-0.71
2022-12-04T01:49:15.585Z,-0.76
2022-12-04T01:51:45.273Z,-0.61
2022-12-04T01:54:22.234Z,-0.62
2022-12-04T01:56:59.329Z,-0.64
2022-12-04T01:59:32.009Z,-0.59
2022-12-04T02:02:12.107Z,-0.56
2022-12-04T02:04:41.719Z,-0.64
2022-12-04T02:07:10.099Z,-0.66
2022-12-04T02:09:39.583Z,-0.54
2022-12-04T02:12:24.483Z,-0.67
2022-12-04T02:15:23.780Z,-0.71
2022-12-04T02:18:04.356Z,-0.68
2022-12-04T02:20:47.456Z,-0.73
2022-12-04T02:23:34.000Z,-0.77
2022-12-04T02:26:29.403Z,-0.67
2022-12-04T02:29:18.080Z,-0.61
2022-12-04T02:31:56.368Z,-0.69
2022-12-04T02:34:30.950Z,-0.72
2022-12-04T02:37:05.558Z,-0.66
2022-12-04T02:39:42.269Z,-0.65
2022-12-04T02:42:17.036Z,-0.63
2022-12-04T02:44:54.340Z,-0.57
2022-12-04T02:47:24.877Z,-0.63
2022-12-04T02:50:00.306Z,-0.59
2022-12-04T02:52:36.412Z,-0.67
2022-12-04T02:55:09.323Z,-0.62
2022-12-04T02:57:42.348Z,-0.63
2022-12-04T03:00:10.874Z,-0.67
2022-12-04T03:02:59.861Z,-0.58
2022-12-04T03:05:35.714Z,-0.75
2022-12-04T03:08:09.084Z,-0.71
2022-12-04T03:10:42.178Z,-0.75
2022-12-04T03:13:24.015Z,-0.66
2022-12-04T03:16:02.911Z,-0.70
2022-12-04T03:18:39.079Z,-0.55
2022-12-04T03:21:11.844Z,-0.57
2022-12-04T03:23:47.612Z,-0.70
2022-12-04T03:26:25.329Z,-0.67
2022-12-04T03:29:08.785Z,-0.68
2022-12-04T03:31:48.572Z,-0.67
2022-12-04T03:34:28.121Z,-0.63
2022-12-04T03:37:04.597Z,-0.59
2022-12-04T03:39:43.274Z,-0.62
2022-12-04T03:42:28.442Z,-0.73
2022-12-04T03:45:20.733Z,-0.72
2022-12-04T03:47:54.557Z,-0.64
2022-12-04T03:50:42.955Z,-0.60
2022-12-04T03:53:31.612Z,-0.71
2022-12-04T03:56:10.681Z,-0.73
2022-12-04T03:58:43.156Z,-0.60
2022-12-04T04:01:11.775Z,-0.70
2022-12-04T04:03:52.971Z,-0.71
2022-12-04T04:06:37.797Z,-0.69
2022-12-04T04:09:11.953Z,-0.66
2022-12-04T04:11:46.699Z,-0.63
2022-12-04T04:14:45.819Z,-0.62
2022-12-04T04:17:38.697Z,-0.57
2022-12-04T04:20:37.261Z,-0.82
2022-12-04T04:23:25.136Z,-0.68
2022-12-04T04:25:54.565Z,-0.59
2022-12-04T04:28:32.711Z,-0.59
2022-12-04T04:31:55.654Z,-0.73
2022-12-04T04:34:23.242Z,-0.68
2022-12-04T04:37:01.036Z,-0.71
2022-12-04T04:39:32.942Z,-0.61
2022-12-04T04:42:05.777Z,-0.69
2022-12-04T04:44:46.420Z,-0.66
2022-12-04T04:47:28.436Z,-0.63
2022-12-04T04:49:58.328Z,-0.61
2022-12-04T04:52:26.183Z,-0.66
2022-12-04T04:54:53.895Z,-0.49
2022-12-04T04:57:31.751Z,-0.54
2022-12-04T04:59:59.409Z,-0.59
2022-12-04T05:02:27.853Z,-0.57
2022-12-04T05:04:56.290Z,-0.67
2022-12-04T05:07:23.838Z,-0.59
2022-12-04T05:09:51.409Z,-0.59
2022-12-04T05:12:18.996Z,-0.57
2022-12-04T05:14:48.821Z,-0.61
2022-12-04T05:17:16.831Z,-0.50
2022-12-04T05:19:57.239Z,-0.50
2022-12-04T05:22:36.607Z,-0.54
2022-12-04T05:25:05.025Z,-0.44
2022-12-04T05:27:33.316Z,-0.41
2022-12-04T05:30:00.946Z,-0.50
2022-12-04T05:32:30.060Z,-0.43
2022-12-04T05:34:58.838Z,-0.43
2022-12-04T05:37:26.910Z,-0.58
2022-12-04T05:39:54.824Z,-0.35
2022-12-04T05:42:22.939Z,-0.52
2022-12-04T05:44:50.721Z,-0.44
2022-12-04T05:47:18.372Z,-0.50
2022-12-04T05:49:45.909Z,-0.46
2022-12-04T05:52:13.693Z,-0.44
2022-12-04T05:54:41.635Z,-0.40
2022-12-04T05:57:09.357Z,-0.51
2022-12-04T05:59:37.051Z,-0.50
2022-12-04T06:02:04.746Z,-0.56
2022-12-04T06:04:32.268Z,-0.57
2022-12-04T06:07:00.290Z,-0.53
2022-12-04T06:09:28.792Z,-0.52
2022-12-04T06:11:59.735Z,-0.54
2022-12-04T06:14:27.609Z,-0.43
2022-12-04T06:16:55.490Z,-0.39
2022-12-04T06:19:24.190Z,-0.53
2022-12-04T06:21:54.430Z,-0.45
2022-12-04T06:24:24.832Z,-0.56
2022-12-04T06:27:27.368Z,-0.47
2022-12-04T06:29:43.940Z,-0.55
2022-12-04T06:32:14.096Z,-0.40
2022-12-04T06:34:45.597Z,-0.51
2022-12-04T06:37:13.172Z,-0.56
2022-12-04T06:39:40.732Z,-0.51
2022-12-04T06:42:08.345Z,-0.56
2022-12-04T06:44:35.916Z,-0.53
2022-12-04T06:47:04.050Z,-0.44
2022-12-04T06:49:31.573Z,-0.67
2022-12-04T06:51:59.153Z,-0.52
2022-12-04T06:54:26.719Z,-0.50
2022-12-04T06:56:54.243Z,-0.59
2022-12-04T06:59:21.801Z,-0.50
2022-12-04T07:01:49.270Z,-0.55
2022-12-04T07:04:16.783Z,-0.42
2022-12-04T07:06:44.349Z,-0.55
2022-12-04T07:09:16.418Z,-0.43
2022-12-04T07:11:45.468Z,-0.58
2022-12-04T07:14:14.537Z,-0.61
2022-12-04T07:16:43.338Z,-0.55
2022-12-04T07:19:12.823Z,-0.44
2022-12-04T07:21:40.813Z,-0.49
2022-12-04T07:24:08.431Z,-0.52
2022-12-04T07:26:36.028Z,-0.57
2022-12-04T07:29:03.499Z,-0.52
2022-12-04T07:31:31.403Z,-0.48
2022-12-04T07:33:59.736Z,-0.41
2022-12-04T07:36:28.102Z,-0.46
2022-12-04T07:38:57.512Z,-0.54
2022-12-04T07:41:25.877Z,-0.52
2022-12-04T07:43:54.867Z,-0.32
2022-12-04T07:46:26.423Z,-0.48
2022-12-04T07:48:57.009Z,-0.38
2022-12-04T07:51:27.685Z,-0.52
2022-12-04T07:54:02.647Z,-0.41
2022-12-04T07:56:31.436Z,-0.36
2022-12-04T07:59:00.332Z,-0.34
2022-12-04T08:01:29.160Z,-0.40
2022-12-04T08:03:59.314Z,-0.43
2022-12-04T08:06:29.437Z,-0.50
2022-12-04T08:08:58.533Z,-0.47
2022-12-04T08:11:28.454Z,-0.39
2022-12-04T08:14:01.944Z,-0.25
2022-12-04T08:16:31.933Z,-0.30
2022-12-04T08:19:01.189Z,-0.40
2022-12-04T08:21:31.486Z,-0.34
2022-12-04T08:24:01.213Z,-0.21
2022-12-04T08:26:31.621Z,-0.35
2022-12-04T08:29:01.451Z,-0.28
2022-12-04T08:31:31.377Z,-0.35
2022-12-04T08:34:00.448Z,-0.32
2022-12-04T08:36:29.338Z,-0.24
2022-12-04T08:38:57.718Z,-0.29
2022-12-04T08:41:27.156Z,-0.26
2022-12-04T08:43:58.134Z,-0.23
2022-12-04T08:46:28.103Z,-0.25
2022-12-04T08:48:56.665Z,-0.14
2022-12-04T08:51:27.832Z,-0.23
2022-12-04T08:53:57.215Z,-0.20
2022-12-04T08:56:26.530Z,-0.13
2022-12-04T08:58:54.925Z,-0.21
2022-12-04T09:01:22.942Z,-0.24
2022-12-04T09:03:51.047Z,-0.20
2022-12-04T09:06:19.641Z,-0.32
2022-12-04T09:08:47.692Z,-0.09
2022-12-04T09:11:19.046Z,-0.32
2022-12-04T09:13:48.549Z,-0.31
2022-12-04T09:16:20.489Z,-0.21
2022-12-04T09:18:48.896Z,-0.17
2022-12-04T09:21:19.328Z,-0.22
2022-12-04T09:23:47.803Z,-0.17
2022-12-04T09:26:36.251Z,-0.22
2022-12-04T09:29:06.075Z,-0.25
2022-12-04T09:31:35.036Z,-0.10
2022-12-04T09:34:03.458Z,-0.16
2022-12-04T09:36:31.825Z,-0.15
2022-12-04T09:39:00.096Z,-0.13
2022-12-04T09:41:34.220Z,-0.03
2022-12-04T09:44:11.612Z,-0.04
2022-12-04T09:46:44.486Z,-0.22
2022-12-04T09:49:27.714Z,-0.20
2022-12-04T09:51:59.678Z,-0.19
2022-12-04T09:54:34.001Z,-0.11
2022-12-04T09:57:12.037Z,-0.13
2022-12-04T09:59:40.082Z,-0.10
2022-12-04T10:02:10.836Z,-0.01
2022-12-04T10:04:39.293Z,-0.16
2022-12-04T10:07:48.085Z,-0.09
2022-12-04T10:10:40.495Z,-0.01
2022-12-04T10:13:14.204Z,-0.04
2022-12-04T10:16:02.058Z,-0.16
2022-12-04T10:18:48.917Z,-0.04
2022-12-04T10:21:53.654Z,-0.17
2022-12-04T10:24:42.437Z,-0.17
2022-12-04T10:27:22.464Z,-0.14
2022-12-04T10:29:55.227Z,-0.25
2022-12-04T10:32:36.132Z,-0.23
2022-12-04T10:35:17.414Z,-0.24
2022-12-04T10:37:47.211Z,-0.15
2022-12-04T10:40:34.367Z,-0.17
2022-12-04T10:43:23.704Z,-0.22
2022-12-04T10:45:51.775Z,-0.13
2022-12-04T10:48:31.623Z,-0.35
2022-12-04T10:51:00.312Z,-0.32
2022-12-04T10:53:34.743Z,-0.18
2022-12-04T10:56:18.377Z,-0.28
2022-12-04T10:59:00.253Z,-0.25
2022-12-04T11:01:32.036Z,-0.14
2022-12-04T11:04:11.245Z,-0.13
2022-12-04T11:06:43.197Z,-0.14
2022-12-04T11:09:23.686Z,-0.16
2022-12-04T11:11:52.566Z,0.02
2022-12-04T11:14:23.623Z,-0.04
2022-12-04T11:17:03.017Z,-0.18
2022-12-04T11:19:33.802Z,-0.01
2022-12-04T11:22:16.556Z,-0.20
2022-12-04T11:24:52.247Z,-0.23
2022-12-04T11:27:32.215Z,-0.22
2022-12-04T11:30:05.413Z,-0.18
2022-12-04T11:32:35.661Z,-0.17
2022-12-04T11:35:15.408Z,-0.19
2022-12-04T11:37:45.423Z,-0.19
2022-12-04T11:40:20.941Z,-0.19
2022-12-04T11:43:20.149Z,-0.06
2022-12-04T11:46:03.881Z,-0.11
2022-12-04T11:48:42.192Z,-0.03
2022-12-04T11:51:15.997Z,-0.20
2022-12-04T11:54:10.699Z,-0.14
2022-12-04T11:56:43.172Z,-0.11
2022-12-04T11:59:16.999Z,-0.05
2022-12-04T12:02:16.366Z,-0.14
2022-12-04T12:05:19.890Z,0.09
2022-12-04T12:08:03.260Z,0.18
2022-12-04T12:10:44.936Z,0.05
2022-12-04T12:13:46.999Z,0.17
2022-12-04T12:16:29.934Z,0.18
2022-12-04T12:19:13.053Z,0.16
2022-12-04T12:22:05.220Z,0.06
2022-12-04T12:24:40.916Z,0.07
2022-12-04T12:27:27.747Z,0.26
2022-12-04T12:29:58.263Z,0.15
2022-12-04T12:33:04.627Z,0.02
2022-12-04T12:35:38.753Z,0.23
2022-12-04T12:38:42.156Z,0.11
2022-12-04T12:41:28.753Z,0.08
2022-12-04T12:44:04.928Z,0.03
2022-12-04T12:46:52.807Z,0.05
2022-12-04T12:49:32.835Z,0.07
2022-12-04T12:52:26.994Z,0.17
2022-12-04T12:55:02.352Z,0.14
2022-12-04T12:57:55.401Z,0.19
2022-12-04T13:00:25.627Z,0.18
2022-12-04T13:03:01.688Z,0.28
2022-12-04T13:05:39.266Z,0.19
2022-12-04T13:08:31.718Z,0.37
2022-12-04T13:11:15.965Z,0.29
2022-12-04T13:14:05.341Z,0.25
2022-12-04T13:16:41.601Z,0.12
2022-12-04T13:19:27.083Z,0.40
2022-12-04T13:22:02.116Z,0.44
2022-12-04T13:24:51.713Z,0.36
2022-12-04T13:27:51.088Z,0.32
2022-12-04T13:30:19.114Z,0.21
2022-12-04T13:32:50.239Z,0.31
2022-12-04T13:35:23.607Z,0.40
2022-12-04T13:38:07.046Z,0.48
2022-12-04T13:40:47.911Z,0.34
2022-12-04T13:43:21.891Z,0.32
2022-12-04T13:45:52.045Z,0.45
2022-12-04T13:48:52.396Z,0.40
2022-12-04T13:51:25.058Z,0.37
2022-12-04T13:54:14.423Z,0.46
2022-12-04T13:56:57.441Z,0.43
2022-12-04T13:59:37.413Z,0.43
2022-12-04T14:02:22.191Z,0.37
2022-12-04T14:05:05.506Z,0.27
2022-12-04T14:07:38.522Z,0.35
2022-12-04T14:10:15.979Z,0.34
2022-12-04T14:12:52.140Z,0.29
2022-12-04T14:15:25.743Z,0.21
2022-12-04T14:18:14.708Z,0.35
2022-12-04T14:20:44.720Z,0.34
2022-12-04T14:23:22.725Z,0.43
2022-12-04T14:25:51.426Z,0.35
2022-12-04T14:28:41.973Z,0.35
2022-12-04T14:31:10.666Z,0.36
2022-12-04T14:33:45.843Z,0.52
2022-12-04T14:36:42.388Z,0.41
2022-12-04T14:39:22.433Z,0.36
2022-12-04T14:41:51.118Z,0.44
2022-12-04T14:44:33.117Z,0.32
2022-12-04T14:47:16.990Z,0.35
2022-12-04T14:50:23.849Z,0.46
2022-12-04T14:53:16.899Z,0.48
2022-12-04T14:55:56.647Z,0.38
2022-12-04T14:58:31.790Z,0.40
2022-12-04T15:01:29.060Z,0.41
2022-12-04T15:04:00.496Z,0.41
2022-12-04T15:06:33.566Z,0.34
2022-12-04T15:09:17.532Z,0.28
2022-12-04T15:12:24.000Z,0.16
2022-12-04T15:14:52.292Z,0.27
2022-12-04T15:17:20.459Z,0.25
2022-12-04T15:19:48.541Z,0.31
2022-12-04T15:22:22.646Z,0.23
2022-12-04T15:24:52.356Z,0.29
2022-12-04T15:27:32.073Z,0.22
2022-12-04T15:30:02.735Z,0.25
2022-12-04T15:32:32.443Z,0.33
2022-12-04T15:35:05.026Z,0.32
2022-12-04T15:37:33.911Z,0.36
2022-12-04T15:40:06.728Z,0.50
2022-12-04T15:42:50.449Z,0.46
2022-12-04T15:45:19.767Z,0.35
2022-12-04T15:47:47.600Z,0.34
2022-12-04T15:50:18.333Z,0.31
2022-12-04T15:52:56.549Z,0.41
2022-12-04T15:55:26.153Z,0.36
2022-12-04T15:58:06.120Z,0.42
2022-12-04T16:00:40.013Z,0.33
2022-12-04T16:03:25.333Z,0.42
2022-12-04T16:06:16.094Z,0.48
2022-12-04T16:08:46.422Z,0.32
2022-12-04T16:11:20.462Z,0.24
2022-12-04T16:13:51.174Z,0.37
2022-12-04T16:16:22.588Z,0.41
2022-12-04T16:18:50.697Z,0.28
2022-12-04T16:21:21.938Z,0.40
2022-12-04T16:23:50.232Z,0.50
2022-12-04T16:26:20.751Z,0.50
2022-12-04T16:28:48.629Z,0.53
2022-12-04T16:31:20.157Z,0.37
2022-12-04T16:33:47.961Z,0.47
2022-12-04T16:36:16.007Z,0.49
2022-12-04T16:38:43.977Z,0.39
2022-12-04T16:41:21.980Z,0.50
2022-12-04T16:43:58.964Z,0.55
2022-12-04T16:46:30.957Z,0.48
2022-12-04T16:49:04.285Z,0.50
2022-12-04T16:51:56.462Z,0.52
2022-12-04T16:54:24.542Z,0.58
2022-12-04T16:56:52.711Z,0.57
2022-12-04T16:59:20.599Z,0.53
2022-12-04T17:01:50.473Z,0.63
2022-12-04T17:04:19.442Z,0.62
2022-12-04T17:06:48.071Z,0.61
2022-12-04T17:09:17.271Z,0.69
2022-12-04T17:11:45.953Z,0.68
2022-12-04T17:14:15.055Z,0.67
2022-12-04T17:16:46.881Z,0.70
2022-12-04T17:19:15.528Z,0.69
2022-12-04T17:21:45.111Z,0.72
2022-12-04T17:24:13.442Z,0.69
2022-12-04T17:26:41.865Z,0.70
2022-12-04T17:29:09.842Z,0.81
2022-12-04T17:31:37.884Z,0.74
2022-12-04T17:34:05.999Z,0.72
2022-12-04T17:36:33.847Z,0.78
2022-12-04T17:39:02.736Z,0.82
2022-12-04T17:41:31.024Z,0.84
2022-12-04T17:44:00.963Z,0.79
2022-12-04T17:46:29.216Z,0.93
2022-12-04T17:49:01.586Z,0.97
2022-12-04T17:51:35.103Z,0.96
2022-12-04T17:54:02.776Z,0.88
2022-12-04T17:56:31.266Z,0.84
2022-12-04T17:58:59.255Z,0.95
2022-12-04T18:01:29.196Z,1.00
2022-12-04T18:04:03.327Z,0.98
2022-12-04T18:06:36.373Z,1.08
2022-12-04T18:09:05.192Z,1.04
2022-12-04T18:11:35.102Z,1.13
2022-12-04T18:14:11.686Z,1.13
2022-12-04T18:16:43.229Z,1.07
2022-12-04T18:19:12.284Z,1.07
2022-12-04T18:21:40.379Z,1.04
2022-12-04T18:24:08.367Z,1.16
2022-12-04T18:26:42.361Z,1.18
2022-12-04T18:29:11.761Z,1.09
2022-12-04T18:31:39.501Z,1.09
2022-12-04T18:34:08.045Z,1.10
2022-12-04T18:36:38.681Z,1.13
2022-12-04T18:39:09.385Z,1.14
2022-12-04T18:41:37.599Z,1.12
2022-12-04T18:44:05.358Z,1.08
2022-12-04T18:46:33.165Z,1.05
2022-12-04T18:49:02.200Z,1.12
2022-12-04T18:51:35.509Z,1.19
2022-12-04T18:54:06.272Z,1.23
2022-12-04T18:56:35.851Z,1.18
2022-12-04T18:59:08.103Z,1.24
2022-12-04T19:01:35.860Z,1.20
2022-12-04T19:04:05.523Z,1.24
2022-12-04T19:06:36.358Z,1.32
2022-12-04T19:09:07.467Z,1.15
2022-12-04T19:11:35.565Z,1.23
2022-12-04T19:14:10.293Z,1.36
2022-12-04T19:16:43.693Z,1.29
2022-12-04T19:19:15.641Z,1.27
2022-12-04T19:21:44.316Z,1.25
2022-12-04T19:24:12.341Z,1.20
2022-12-04T19:26:40.166Z,1.21
2022-12-04T19:29:08.318Z,1.23
2022-12-04T19:31:37.621Z,1.29
2022-12-04T19:34:06.619Z,1.35
2022-12-04T19:36:37.567Z,1.28
2022-12-04T19:39:07.443Z,1.16
2022-12-04T19:41:37.148Z,1.16
2022-12-04T19:44:26.309Z,1.25
2022-12-04T19:46:53.842Z,1.20
2022-12-04T19:49:21.291Z,1.18
2022-12-04T19:51:49.844Z,1.20
2022-12-04T19:54:17.893Z,1.20
2022-12-04T19:56:49.007Z,1.07
2022-12-04T19:59:16.509Z,1.23
2022-12-04T20:01:44.621Z,1.20
2022-12-04T20:04:12.326Z,1.14
2022-12-04T20:06:47.252Z,1.16
2022-12-04T20:09:20.141Z,1.23
2022-12-04T20:11:48.464Z,1.20
2022-12-04T20:14:16.478Z,1.18
2022-12-04T20:16:46.693Z,1.16
2022-12-04T20:19:19.551Z,1.19
2022-12-04T20:21:47.800Z,1.15
2022-12-04T20:24:17.607Z,1.16
2022-12-04T20:26:47.019Z,1.14
2022-12-04T20:29:19.032Z,1.14
2022-12-04T20:31:47.466Z,1.20
2022-12-04T20:34:18.529Z,1.25
2022-12-04T20:36:48.619Z,1.16
2022-12-04T20:39:17.721Z,1.23
2022-12-04T20:41:45.355Z,1.33
2022-12-04T20:44:19.091Z,1.32
2022-12-04T20:46:47.014Z,1.28
2022-12-04T20:49:21.640Z,1.27
2022-12-04T20:51:50.826Z,1.32
2022-12-04T20:54:20.196Z,1.33
2022-12-04T20:56:49.154Z,1.23
2022-12-04T20:59:19.135Z,1.28
2022-12-04T21:01:49.045Z,1.38
2022-12-04T21:04:17.985Z,1.36
2022-12-04T21:06:46.587Z,1.48
2022-12-04T21:09:24.739Z,1.36
2022-12-04T21:11:55.035Z,1.38
2022-12-04T21:14:51.072Z,1.44
2022-12-04T21:17:21.217Z,1.39
2022-12-04T21:19:51.107Z,1.44
2022-12-04T21:22:19.817Z,1.46
2022-12-04T21:24:47.505Z,1.51
2022-12-04T21:27:20.711Z,1.51
2022-12-04T21:29:49.453Z,1.39
2022-12-04T21:32:17.009Z,1.49
2022-12-04T21:34:44.790Z,1.56
2022-12-04T21:37:12.345Z,1.60
2022-12-04T21:39:39.919Z,1.60
2022-12-04T21:42:36.513Z,1.53
2022-12-04T21:45:07.703Z,1.51
2022-12-04T21:47:37.203Z,1.55
2022-12-04T21:50:05.970Z,1.47
2022-12-04T21:52:33.432Z,1.57
2022-12-04T21:55:00.981Z,1.48
2022-12-04T21:57:29.520Z,1.51
2022-12-04T21:59:57.329Z,1.41
2022-12-04T22:02:25.176Z,1.46
2022-12-04T22:04:52.693Z,1.45
2022-12-04T22:07:20.272Z,1.54
2022-12-04T22:09:47.893Z,1.51
2022-12-04T22:12:41.175Z,1.49
2022-12-04T22:15:05.614Z,1.52
2022-12-04T22:17:33.219Z,1.58
2022-12-04T22:20:00.718Z,1.58
2022-12-04T22:22:28.323Z,1.57
2022-12-04T22:24:55.849Z,1.57
2022-12-04T22:27:23.758Z,1.60
2022-12-04T22:29:51.646Z,1.58
2022-12-04T22:32:20.814Z,1.55
2022-12-04T22:34:49.749Z,1.52
2022-12-04T22:37:17.536Z,1.55
2022-12-04T22:39:45.087Z,1.52
2022-12-04T22:42:12.605Z,1.59
2022-12-04T22:44:42.600Z,1.56
2022-12-04T22:47:11.695Z,1.62
2022-12-04T22:49:40.405Z,1.62
2022-12-04T22:52:07.949Z,1.64
2022-12-04T22:54:35.464Z,1.66
2022-12-04T22:57:02.970Z,1.66
2022-12-04T22:59:30.749Z,1.73
2022-12-04T23:02:00.047Z,1.78
2022-12-04T23:04:28.169Z,1.75
2022-12-04T23:06:55.772Z,1.71
2022-12-04T23:09:23.282Z,1.77
2022-12-04T23:11:55.036Z,1.75
2022-12-04T23:14:23.033Z,1.72
2022-12-04T23:16:50.789Z,1.70
2022-12-04T23:19:20.356Z,1.77
2022-12-04T23:21:55.054Z,1.59
2022-12-04T23:24:24.713Z,1.76
2022-12-04T23:26:52.319Z,1.80
2022-12-04T23:32:07.413Z,1.87
2022-12-04T23:34:34.921Z,1.89
2022-12-04T23:37:02.461Z,1.89
2022-12-04T23:39:30.056Z,1.96
2022-12-04T23:41:57.535Z,1.99
2022-12-04T23:44:25.053Z,1.96
2022-12-04T23:46:52.583Z,1.99
2022-12-04T23:49:20.278Z,1.95
2022-12-04T23:51:47.722Z,2.03
2022-12-04T23:54:15.326Z,2.01
2022-12-04T23:56:42.870Z,2.06
2022-12-04T23:59:10.655Z,2.07
